sensor_id;sensor_type;location;lat;lon;timestamp;temperature;humidity
13998;DHT22;7074;51.508;7.018;2024-03-29T00:00:46;10.80;99.90
13998;DHT22;7074;51.508;7.018;2024-03-29T00:03:13;10.90;99.90
13998;DHT22;7074;51.508;7.018;2024-03-29T00:05:40;10.90;99.90
13998;DHT22;7074;51.508;7.018;2024-03-29T00:08:06;10.90;99.90
13998;DHT22;7074;51.508;7.018;2024-03-29T00:10:35;10.90;99.90
13998;DHT22;7074;51.508;7.018;2024-03-29T00:13:03;10.80;99.90
13998;DHT22;7074;51.508;7.018;2024-03-29T00:15:31;10.80;99.90
13998;DHT22;7074;51.508;7.018;2024-03-29T00:17:59;10.90;99.90
13998;DHT22;7074;51.508;7.018;2024-03-29T00:20:26;10.90;99.80
13998;DHT22;7074;51.508;7.018;2024-03-29T00:22:54;10.90;99.80
13998;DHT22;7074;51.508;7.018;2024-03-29T00:25:21;11.00;99.90
13998;DHT22;7074;51.508;7.018;2024-03-29T00:27:47;11.00;99.80
13998;DHT22;7074;51.508;7.018;2024-03-29T00:30:18;11.00;99.50
13998;DHT22;7074;51.508;7.018;2024-03-29T00:32:47;11.00;99.50
13998;DHT22;7074;51.508;7.018;2024-03-29T00:35:14;11.00;99.50
13998;DHT22;7074;51.508;7.018;2024-03-29T00:37:40;11.00;99.70
13998;DHT22;7074;51.508;7.018;2024-03-29T00:40:07;11.00;99.60
13998;DHT22;7074;51.508;7.018;2024-03-29T00:42:36;11.00;99.60
13998;DHT22;7074;51.508;7.018;2024-03-29T00:45:02;11.00;99.60
13998;DHT22;7074;51.508;7.018;2024-03-29T00:47:33;11.00;99.60
13998;DHT22;7074;51.508;7.018;2024-03-29T00:49:59;11.00;99.80
13998;DHT22;7074;51.508;7.018;2024-03-29T00:52:26;10.90;99.80
13998;DHT22;7074;51.508;7.018;2024-03-29T00:54:52;10.90;99.80
13998;DHT22;7074;51.508;7.018;2024-03-29T00:57:19;11.00;99.90
13998;DHT22;7074;51.508;7.018;2024-03-29T00:59:48;11.00;99.80
13998;DHT22;7074;51.508;7.018;2024-03-29T01:02:14;11.00;99.80
13998;DHT22;7074;51.508;7.018;2024-03-29T01:04:47;11.00;99.80
13998;DHT22;7074;51.508;7.018;2024-03-29T01:07:13;11.00;99.60
13998;DHT22;7074;51.508;7.018;2024-03-29T01:09:44;10.90;99.60
13998;DHT22;7074;51.508;7.018;2024-03-29T01:12:10;10.90;99.40
13998;DHT22;7074;51.508;7.018;2024-03-29T01:14:37;11.00;99.40
13998;DHT22;7074;51.508;7.018;2024-03-29T01:17:05;11.00;99.60
13998;DHT22;7074;51.508;7.018;2024-03-29T01:19:32;11.00;99.40
13998;DHT22;7074;51.508;7.018;2024-03-29T01:22:01;11.00;99.20
13998;DHT22;7074;51.508;7.018;2024-03-29T01:24:27;11.00;99.20
13998;DHT22;7074;51.508;7.018;2024-03-29T01:26:54;11.10;99.30
13998;DHT22;7074;51.508;7.018;2024-03-29T01:29:22;11.10;98.70
13998;DHT22;7074;51.508;7.018;2024-03-29T01:31:51;11.10;98.80
13998;DHT22;7074;51.508;7.018;2024-03-29T01:34:17;11.10;98.70
13998;DHT22;7074;51.508;7.018;2024-03-29T01:36:43;11.10;98.40
13998;DHT22;7074;51.508;7.018;2024-03-29T01:39:13;11.10;98.20
13998;DHT22;7074;51.508;7.018;2024-03-29T01:41:40;11.20;98.20
13998;DHT22;7074;51.508;7.018;2024-03-29T01:44:06;11.20;98.10
13998;DHT22;7074;51.508;7.018;2024-03-29T01:46:37;11.20;98.00
13998;DHT22;7074;51.508;7.018;2024-03-29T01:49:05;11.20;98.20
13998;DHT22;7074;51.508;7.018;2024-03-29T01:51:37;11.20;97.90
13998;DHT22;7074;51.508;7.018;2024-03-29T01:54:08;11.30;97.60
13998;DHT22;7074;51.508;7.018;2024-03-29T01:56:40;11.30;97.50
13998;DHT22;7074;51.508;7.018;2024-03-29T01:59:13;11.40;97.40
13998;DHT22;7074;51.508;7.018;2024-03-29T02:01:43;11.30;97.30
13998;DHT22;7074;51.508;7.018;2024-03-29T02:04:12;11.30;97.50
13998;DHT22;7074;51.508;7.018;2024-03-29T02:06:39;11.40;97.50
13998;DHT22;7074;51.508;7.018;2024-03-29T02:09:06;11.40;97.20
13998;DHT22;7074;51.508;7.018;2024-03-29T02:11:34;11.50;97.00
13998;DHT22;7074;51.508;7.018;2024-03-29T02:14:04;11.40;96.80
13998;DHT22;7074;51.508;7.018;2024-03-29T02:16:33;11.50;96.90
13998;DHT22;7074;51.508;7.018;2024-03-29T02:19:00;11.50;96.70
13998;DHT22;7074;51.508;7.018;2024-03-29T02:21:27;11.50;96.90
13998;DHT22;7074;51.508;7.018;2024-03-29T02:24:04;11.50;96.80
13998;DHT22;7074;51.508;7.018;2024-03-29T02:26:32;11.50;96.90
13998;DHT22;7074;51.508;7.018;2024-03-29T02:29:02;11.50;96.80
13998;DHT22;7074;51.508;7.018;2024-03-29T02:31:29;11.50;97.10
13998;DHT22;7074;51.508;7.018;2024-03-29T02:33:56;11.50;97.10
13998;DHT22;7074;51.508;7.018;2024-03-29T02:36:24;11.40;96.90
13998;DHT22;7074;51.508;7.018;2024-03-29T02:38:51;11.50;97.10
13998;DHT22;7074;51.508;7.018;2024-03-29T02:41:20;11.40;96.90
13998;DHT22;7074;51.508;7.018;2024-03-29T02:43:47;11.40;97.00
13998;DHT22;7074;51.508;7.018;2024-03-29T02:46:14;11.50;97.00
13998;DHT22;7074;51.508;7.018;2024-03-29T02:48:41;11.50;96.90
13998;DHT22;7074;51.508;7.018;2024-03-29T02:51:08;11.50;97.00
13998;DHT22;7074;51.508;7.018;2024-03-29T02:53:35;11.50;97.20
13998;DHT22;7074;51.508;7.018;2024-03-29T02:56:01;11.50;96.80
13998;DHT22;7074;51.508;7.018;2024-03-29T02:58:30;11.50;96.70
13998;DHT22;7074;51.508;7.018;2024-03-29T03:00:56;11.60;96.50
13998;DHT22;7074;51.508;7.018;2024-03-29T03:03:27;11.70;96.40
13998;DHT22;7074;51.508;7.018;2024-03-29T03:05:54;11.70;96.10
13998;DHT22;7074;51.508;7.018;2024-03-29T03:08:20;11.80;96.00
13998;DHT22;7074;51.508;7.018;2024-03-29T03:11:05;11.80;96.00
13998;DHT22;7074;51.508;7.018;2024-03-29T03:13:33;11.90;96.30
13998;DHT22;7074;51.508;7.018;2024-03-29T03:16:01;11.90;97.10
13998;DHT22;7074;51.508;7.018;2024-03-29T03:18:28;11.90;98.00
13998;DHT22;7074;51.508;7.018;2024-03-29T03:20:55;11.90;97.70
13998;DHT22;7074;51.508;7.018;2024-03-29T03:23:23;11.90;97.50
13998;DHT22;7074;51.508;7.018;2024-03-29T03:25:54;11.90;97.30
13998;DHT22;7074;51.508;7.018;2024-03-29T03:28:21;12.00;97.80
13998;DHT22;7074;51.508;7.018;2024-03-29T03:30:49;11.90;97.10
13998;DHT22;7074;51.508;7.018;2024-03-29T03:33:17;11.90;98.60
13998;DHT22;7074;51.508;7.018;2024-03-29T03:35:44;11.90;97.60
13998;DHT22;7074;51.508;7.018;2024-03-29T03:38:11;12.00;98.40
13998;DHT22;7074;51.508;7.018;2024-03-29T03:40:38;11.90;98.60
13998;DHT22;7074;51.508;7.018;2024-03-29T03:43:06;11.90;98.70
13998;DHT22;7074;51.508;7.018;2024-03-29T03:45:34;11.90;99.90
13998;DHT22;7074;51.508;7.018;2024-03-29T03:48:04;11.90;98.90
13998;DHT22;7074;51.508;7.018;2024-03-29T03:50:30;11.80;99.50
13998;DHT22;7074;51.508;7.018;2024-03-29T03:52:58;11.90;99.90
13998;DHT22;7074;51.508;7.018;2024-03-29T03:55:24;11.80;99.90
13998;DHT22;7074;51.508;7.018;2024-03-29T03:57:52;11.80;99.90
13998;DHT22;7074;51.508;7.018;2024-03-29T04:00:19;11.80;99.90
13998;DHT22;7074;51.508;7.018;2024-03-29T04:02:47;11.80;99.90
13998;DHT22;7074;51.508;7.018;2024-03-29T04:05:16;11.80;99.90
13998;DHT22;7074;51.508;7.018;2024-03-29T04:07:43;11.70;99.90
13998;DHT22;7074;51.508;7.018;2024-03-29T04:10:10;11.70;99.90
13998;DHT22;7074;51.508;7.018;2024-03-29T04:12:37;11.80;99.90
13998;DHT22;7074;51.508;7.018;2024-03-29T04:15:05;11.80;99.90
13998;DHT22;7074;51.508;7.018;2024-03-29T04:17:32;11.80;99.90
13998;DHT22;7074;51.508;7.018;2024-03-29T04:19:59;11.70;99.90
13998;DHT22;7074;51.508;7.018;2024-03-29T04:22:29;11.70;99.90
13998;DHT22;7074;51.508;7.018;2024-03-29T04:24:55;11.70;99.90
13998;DHT22;7074;51.508;7.018;2024-03-29T04:27:22;11.70;99.90
13998;DHT22;7074;51.508;7.018;2024-03-29T04:29:51;11.70;99.90
13998;DHT22;7074;51.508;7.018;2024-03-29T04:32:18;11.70;99.90
13998;DHT22;7074;51.508;7.018;2024-03-29T04:34:47;11.70;99.90
13998;DHT22;7074;51.508;7.018;2024-03-29T04:37:14;11.70;99.90
13998;DHT22;7074;51.508;7.018;2024-03-29T04:39:44;11.70;99.90
13998;DHT22;7074;51.508;7.018;2024-03-29T04:42:11;11.70;99.90
13998;DHT22;7074;51.508;7.018;2024-03-29T04:44:40;11.50;99.90
13998;DHT22;7074;51.508;7.018;2024-03-29T04:47:07;11.60;99.90
13998;DHT22;7074;51.508;7.018;2024-03-29T04:49:35;11.60;99.90
13998;DHT22;7074;51.508;7.018;2024-03-29T04:52:04;11.60;99.90
13998;DHT22;7074;51.508;7.018;2024-03-29T04:54:31;11.40;99.90
13998;DHT22;7074;51.508;7.018;2024-03-29T04:57:01;11.40;99.90
13998;DHT22;7074;51.508;7.018;2024-03-29T04:59:29;11.40;99.90
13998;DHT22;7074;51.508;7.018;2024-03-29T05:01:58;11.40;99.90
13998;DHT22;7074;51.508;7.018;2024-03-29T05:04:25;11.40;99.90
13998;DHT22;7074;51.508;7.018;2024-03-29T05:06:53;11.40;99.90
13998;DHT22;7074;51.508;7.018;2024-03-29T05:09:21;11.40;99.90
13998;DHT22;7074;51.508;7.018;2024-03-29T05:11:48;11.40;99.90
13998;DHT22;7074;51.508;7.018;2024-03-29T05:14:18;11.20;99.90
13998;DHT22;7074;51.508;7.018;2024-03-29T05:16:45;11.10;99.90
13998;DHT22;7074;51.508;7.018;2024-03-29T05:19:14;10.90;99.90
13998;DHT22;7074;51.508;7.018;2024-03-29T05:21:41;10.80;99.90
13998;DHT22;7074;51.508;7.018;2024-03-29T05:24:09;10.70;99.90
13998;DHT22;7074;51.508;7.018;2024-03-29T05:26:36;10.80;99.90
13998;DHT22;7074;51.508;7.018;2024-03-29T05:29:03;10.80;99.90
13998;DHT22;7074;51.508;7.018;2024-03-29T05:31:32;10.80;99.90
13998;DHT22;7074;51.508;7.018;2024-03-29T05:33:59;10.80;99.90
13998;DHT22;7074;51.508;7.018;2024-03-29T05:36:27;10.70;99.90
13998;DHT22;7074;51.508;7.018;2024-03-29T05:38:54;10.80;99.90
13998;DHT22;7074;51.508;7.018;2024-03-29T05:41:22;10.70;99.90
13998;DHT22;7074;51.508;7.018;2024-03-29T05:43:49;10.70;99.90
13998;DHT22;7074;51.508;7.018;2024-03-29T05:46:17;10.80;99.90
13998;DHT22;7074;51.508;7.018;2024-03-29T05:48:46;10.80;99.90
13998;DHT22;7074;51.508;7.018;2024-03-29T05:51:13;10.70;99.90
13998;DHT22;7074;51.508;7.018;2024-03-29T05:53:40;10.70;99.90
13998;DHT22;7074;51.508;7.018;2024-03-29T05:56:07;10.70;99.90
13998;DHT22;7074;51.508;7.018;2024-03-29T05:58:34;10.70;99.90
13998;DHT22;7074;51.508;7.018;2024-03-29T06:01:02;10.70;99.90
13998;DHT22;7074;51.508;7.018;2024-03-29T06:03:29;10.60;99.90
13998;DHT22;7074;51.508;7.018;2024-03-29T06:05:58;10.60;99.90
13998;DHT22;7074;51.508;7.018;2024-03-29T06:08:25;10.60;99.90
13998;DHT22;7074;51.508;7.018;2024-03-29T06:10:53;10.60;99.90
13998;DHT22;7074;51.508;7.018;2024-03-29T06:13:20;10.60;99.90
13998;DHT22;7074;51.508;7.018;2024-03-29T06:16:05;10.60;99.90
13998;DHT22;7074;51.508;7.018;2024-03-29T06:18:50;10.60;99.90
13998;DHT22;7074;51.508;7.018;2024-03-29T06:21:18;10.50;99.90
13998;DHT22;7074;51.508;7.018;2024-03-29T06:23:46;10.50;99.90
13998;DHT22;7074;51.508;7.018;2024-03-29T06:26:13;10.50;99.90
13998;DHT22;7074;51.508;7.018;2024-03-29T06:28:40;10.50;99.90
13998;DHT22;7074;51.508;7.018;2024-03-29T06:31:07;10.40;99.90
13998;DHT22;7074;51.508;7.018;2024-03-29T06:33:35;10.50;99.90
13998;DHT22;7074;51.508;7.018;2024-03-29T07:50:23;11.10;99.90
13998;DHT22;7074;51.508;7.018;2024-03-29T07:52:51;11.20;99.90
13998;DHT22;7074;51.508;7.018;2024-03-29T07:55:18;11.20;99.90
13998;DHT22;7074;51.508;7.018;2024-03-29T07:57:45;11.30;99.90
13998;DHT22;7074;51.508;7.018;2024-03-29T08:00:14;11.30;99.90
13998;DHT22;7074;51.508;7.018;2024-03-29T08:02:41;11.40;99.90
13998;DHT22;7074;51.508;7.018;2024-03-29T08:05:09;11.40;99.90
13998;DHT22;7074;51.508;7.018;2024-03-29T08:07:37;11.50;99.90
13998;DHT22;7074;51.508;7.018;2024-03-29T08:10:05;11.40;99.90
13998;DHT22;7074;51.508;7.018;2024-03-29T08:12:33;11.50;99.90
13998;DHT22;7074;51.508;7.018;2024-03-29T08:15:01;11.50;99.90
13998;DHT22;7074;51.508;7.018;2024-03-29T08:17:29;11.60;99.90
13998;DHT22;7074;51.508;7.018;2024-03-29T08:19:56;11.60;99.90
13998;DHT22;7074;51.508;7.018;2024-03-29T08:22:23;11.60;99.90
13998;DHT22;7074;51.508;7.018;2024-03-29T08:24:52;11.60;99.90
13998;DHT22;7074;51.508;7.018;2024-03-29T08:27:19;11.60;99.90
13998;DHT22;7074;51.508;7.018;2024-03-29T08:29:46;11.70;99.90
13998;DHT22;7074;51.508;7.018;2024-03-29T08:32:15;11.80;99.90
13998;DHT22;7074;51.508;7.018;2024-03-29T08:34:42;11.80;99.90
13998;DHT22;7074;51.508;7.018;2024-03-29T08:37:08;11.80;99.90
13998;DHT22;7074;51.508;7.018;2024-03-29T08:39:35;11.90;99.90
13998;DHT22;7074;51.508;7.018;2024-03-29T08:42:05;11.90;99.90
13998;DHT22;7074;51.508;7.018;2024-03-29T08:44:32;11.90;99.90
13998;DHT22;7074;51.508;7.018;2024-03-29T08:47:00;12.00;99.90
13998;DHT22;7074;51.508;7.018;2024-03-29T08:49:28;12.00;99.90
13998;DHT22;7074;51.508;7.018;2024-03-29T08:51:56;12.10;99.90
13998;DHT22;7074;51.508;7.018;2024-03-29T08:54:23;12.10;99.90
13998;DHT22;7074;51.508;7.018;2024-03-29T08:56:50;12.00;99.90
13998;DHT22;7074;51.508;7.018;2024-03-29T08:59:18;12.00;99.90
13998;DHT22;7074;51.508;7.018;2024-03-29T09:01:46;12.00;99.90
13998;DHT22;7074;51.508;7.018;2024-03-29T09:04:14;11.90;99.90
13998;DHT22;7074;51.508;7.018;2024-03-29T09:06:42;12.00;99.90
13998;DHT22;7074;51.508;7.018;2024-03-29T09:09:09;12.00;99.90
13998;DHT22;7074;51.508;7.018;2024-03-29T09:11:36;12.00;99.90
13998;DHT22;7074;51.508;7.018;2024-03-29T09:14:04;12.10;99.90
13998;DHT22;7074;51.508;7.018;2024-03-29T09:16:35;12.20;99.90
13998;DHT22;7074;51.508;7.018;2024-03-29T09:19:02;12.30;99.90
13998;DHT22;7074;51.508;7.018;2024-03-29T09:21:30;12.30;99.90
13998;DHT22;7074;51.508;7.018;2024-03-29T09:23:57;12.40;99.90
13998;DHT22;7074;51.508;7.018;2024-03-29T09:26:25;12.50;99.90
13998;DHT22;7074;51.508;7.018;2024-03-29T09:28:52;12.60;99.90
13998;DHT22;7074;51.508;7.018;2024-03-29T09:31:19;12.60;99.90
13998;DHT22;7074;51.508;7.018;2024-03-29T09:33:48;12.60;99.90
13998;DHT22;7074;51.508;7.018;2024-03-29T09:36:20;12.60;99.90
13998;DHT22;7074;51.508;7.018;2024-03-29T09:38:49;12.70;99.90
13998;DHT22;7074;51.508;7.018;2024-03-29T09:41:18;12.80;99.90
13998;DHT22;7074;51.508;7.018;2024-03-29T09:43:47;12.80;99.90
13998;DHT22;7074;51.508;7.018;2024-03-29T09:46:16;12.80;99.90
13998;DHT22;7074;51.508;7.018;2024-03-29T09:48:44;12.80;99.90
13998;DHT22;7074;51.508;7.018;2024-03-29T09:51:14;12.80;99.90
13998;DHT22;7074;51.508;7.018;2024-03-29T09:53:43;12.80;99.90
13998;DHT22;7074;51.508;7.018;2024-03-29T09:56:10;12.90;99.90
13998;DHT22;7074;51.508;7.018;2024-03-29T09:58:38;13.00;99.90
13998;DHT22;7074;51.508;7.018;2024-03-29T10:01:07;13.10;99.90
13998;DHT22;7074;51.508;7.018;2024-03-29T10:03:39;13.10;99.90
13998;DHT22;7074;51.508;7.018;2024-03-29T10:06:07;13.20;99.90
13998;DHT22;7074;51.508;7.018;2024-03-29T10:08:37;13.30;99.90
13998;DHT22;7074;51.508;7.018;2024-03-29T10:11:04;13.40;99.90
13998;DHT22;7074;51.508;7.018;2024-03-29T10:13:31;13.60;99.90
13998;DHT22;7074;51.508;7.018;2024-03-29T10:16:00;13.70;99.90
13998;DHT22;7074;51.508;7.018;2024-03-29T10:18:29;13.70;99.90
13998;DHT22;7074;51.508;7.018;2024-03-29T10:21:01;13.70;99.90
13998;DHT22;7074;51.508;7.018;2024-03-29T10:23:29;13.70;99.90
13998;DHT22;7074;51.508;7.018;2024-03-29T10:25:57;13.70;99.90
13998;DHT22;7074;51.508;7.018;2024-03-29T10:28:30;13.70;99.90
13998;DHT22;7074;51.508;7.018;2024-03-29T10:30:57;13.70;99.90
13998;DHT22;7074;51.508;7.018;2024-03-29T10:33:28;13.70;99.90
13998;DHT22;7074;51.508;7.018;2024-03-29T10:35:56;13.80;99.90
13998;DHT22;7074;51.508;7.018;2024-03-29T10:38:24;13.80;99.90
13998;DHT22;7074;51.508;7.018;2024-03-29T10:40:52;13.60;99.90
13998;DHT22;7074;51.508;7.018;2024-03-29T10:43:21;13.60;99.90
13998;DHT22;7074;51.508;7.018;2024-03-29T10:45:48;13.70;99.90
13998;DHT22;7074;51.508;7.018;2024-03-29T10:48:21;13.80;99.90
13998;DHT22;7074;51.508;7.018;2024-03-29T10:50:48;13.80;99.90
13998;DHT22;7074;51.508;7.018;2024-03-29T10:53:17;13.90;99.90
13998;DHT22;7074;51.508;7.018;2024-03-29T10:55:44;14.00;99.90
13998;DHT22;7074;51.508;7.018;2024-03-29T10:58:12;14.10;99.90
13998;DHT22;7074;51.508;7.018;2024-03-29T11:00:46;14.20;99.90
13998;DHT22;7074;51.508;7.018;2024-03-29T11:03:19;14.20;99.90
13998;DHT22;7074;51.508;7.018;2024-03-29T11:05:48;14.30;99.90
13998;DHT22;7074;51.508;7.018;2024-03-29T11:08:21;14.40;99.90
13998;DHT22;7074;51.508;7.018;2024-03-29T11:10:50;14.50;99.90
13998;DHT22;7074;51.508;7.018;2024-03-29T11:13:24;14.70;99.90
13998;DHT22;7074;51.508;7.018;2024-03-29T11:15:55;14.80;99.90
13998;DHT22;7074;51.508;7.018;2024-03-29T11:18:23;15.00;99.90
13998;DHT22;7074;51.508;7.018;2024-03-29T11:20:51;15.20;99.90
13998;DHT22;7074;51.508;7.018;2024-03-29T11:23:20;15.30;99.90
13998;DHT22;7074;51.508;7.018;2024-03-29T11:25:50;15.40;99.90
13998;DHT22;7074;51.508;7.018;2024-03-29T11:28:24;15.40;99.90
13998;DHT22;7074;51.508;7.018;2024-03-29T11:30:55;15.50;99.90
13998;DHT22;7074;51.508;7.018;2024-03-29T11:33:27;15.70;99.90
13998;DHT22;7074;51.508;7.018;2024-03-29T11:35:55;15.80;99.90
13998;DHT22;7074;51.508;7.018;2024-03-29T11:38:28;15.80;99.90
13998;DHT22;7074;51.508;7.018;2024-03-29T11:41:04;15.80;99.90
13998;DHT22;7074;51.508;7.018;2024-03-29T11:43:33;15.80;99.90
13998;DHT22;7074;51.508;7.018;2024-03-29T11:46:04;15.80;99.90
13998;DHT22;7074;51.508;7.018;2024-03-29T11:48:32;15.90;99.90
13998;DHT22;7074;51.508;7.018;2024-03-29T11:51:00;16.00;99.90
13998;DHT22;7074;51.508;7.018;2024-03-29T11:53:29;16.00;99.90
13998;DHT22;7074;51.508;7.018;2024-03-29T11:55:57;16.00;99.90
13998;DHT22;7074;51.508;7.018;2024-03-29T11:58:25;16.10;99.90
13998;DHT22;7074;51.508;7.018;2024-03-29T12:00:54;16.00;99.90
13998;DHT22;7074;51.508;7.018;2024-03-29T12:03:26;15.90;99.90
13998;DHT22;7074;51.508;7.018;2024-03-29T12:05:55;15.80;99.90
13998;DHT22;7074;51.508;7.018;2024-03-29T12:08:24;15.80;99.90
13998;DHT22;7074;51.508;7.018;2024-03-29T12:10:52;15.70;99.90
13998;DHT22;7074;51.508;7.018;2024-03-29T12:13:19;15.60;99.90
13998;DHT22;7074;51.508;7.018;2024-03-29T12:15:46;15.50;99.90
13998;DHT22;7074;51.508;7.018;2024-03-29T12:18:14;15.30;99.90
13998;DHT22;7074;51.508;7.018;2024-03-29T12:20:43;15.30;99.90
13998;DHT22;7074;51.508;7.018;2024-03-29T12:23:15;15.20;99.90
13998;DHT22;7074;51.508;7.018;2024-03-29T12:25:43;15.20;99.90
13998;DHT22;7074;51.508;7.018;2024-03-29T12:28:11;15.30;99.90
13998;DHT22;7074;51.508;7.018;2024-03-29T12:30:40;15.30;99.90
13998;DHT22;7074;51.508;7.018;2024-03-29T12:33:10;15.40;99.90
13998;DHT22;7074;51.508;7.018;2024-03-29T12:35:42;15.50;99.90
13998;DHT22;7074;51.508;7.018;2024-03-29T12:38:11;15.50;99.90
13998;DHT22;7074;51.508;7.018;2024-03-29T12:40:41;15.50;99.90
13998;DHT22;7074;51.508;7.018;2024-03-29T12:43:09;15.60;99.90
13998;DHT22;7074;51.508;7.018;2024-03-29T12:45:39;15.70;99.90
13998;DHT22;7074;51.508;7.018;2024-03-29T12:48:10;15.70;99.90
13998;DHT22;7074;51.508;7.018;2024-03-29T12:50:40;15.80;99.90
13998;DHT22;7074;51.508;7.018;2024-03-29T12:53:10;15.90;99.90
13998;DHT22;7074;51.508;7.018;2024-03-29T12:55:39;16.00;99.90
13998;DHT22;7074;51.508;7.018;2024-03-29T12:58:10;16.00;99.90
13998;DHT22;7074;51.508;7.018;2024-03-29T13:00:39;16.10;99.90
13998;DHT22;7074;51.508;7.018;2024-03-29T13:03:06;16.20;99.90
13998;DHT22;7074;51.508;7.018;2024-03-29T13:05:35;16.40;99.90
13998;DHT22;7074;51.508;7.018;2024-03-29T13:08:08;16.60;99.90
13998;DHT22;7074;51.508;7.018;2024-03-29T13:10:36;16.90;99.90
13998;DHT22;7074;51.508;7.018;2024-03-29T13:13:05;17.00;99.90
13998;DHT22;7074;51.508;7.018;2024-03-29T13:15:34;17.10;99.90
13998;DHT22;7074;51.508;7.018;2024-03-29T13:18:02;17.20;99.90
13998;DHT22;7074;51.508;7.018;2024-03-29T13:20:30;17.10;99.90
13998;DHT22;7074;51.508;7.018;2024-03-29T13:22:58;17.20;99.90
13998;DHT22;7074;51.508;7.018;2024-03-29T13:25:27;17.20;99.90
13998;DHT22;7074;51.508;7.018;2024-03-29T13:27:55;17.20;99.90
13998;DHT22;7074;51.508;7.018;2024-03-29T13:30:23;17.20;99.90
13998;DHT22;7074;51.508;7.018;2024-03-29T13:32:51;17.10;99.70
13998;DHT22;7074;51.508;7.018;2024-03-29T13:35:19;17.20;98.90
13998;DHT22;7074;51.508;7.018;2024-03-29T13:37:48;17.10;98.90
13998;DHT22;7074;51.508;7.018;2024-03-29T13:40:16;17.10;99.30
13998;DHT22;7074;51.508;7.018;2024-03-29T13:42:45;17.20;99.10
13998;DHT22;7074;51.508;7.018;2024-03-29T13:45:12;17.20;98.10
13998;DHT22;7074;51.508;7.018;2024-03-29T13:47:41;17.20;98.80
13998;DHT22;7074;51.508;7.018;2024-03-29T13:50:09;17.30;98.70
13998;DHT22;7074;51.508;7.018;2024-03-29T13:52:37;17.60;97.70
13998;DHT22;7074;51.508;7.018;2024-03-29T13:55:05;17.70;97.50
13998;DHT22;7074;51.508;7.018;2024-03-29T13:57:32;17.90;97.60
13998;DHT22;7074;51.508;7.018;2024-03-29T14:00:01;18.10;96.20
13998;DHT22;7074;51.508;7.018;2024-03-29T14:02:31;18.20;96.00
13998;DHT22;7074;51.508;7.018;2024-03-29T14:04:58;18.00;94.70
13998;DHT22;7074;51.508;7.018;2024-03-29T14:07:26;17.90;94.60
13998;DHT22;7074;51.508;7.018;2024-03-29T14:09:54;17.80;93.80
13998;DHT22;7074;51.508;7.018;2024-03-29T14:12:21;17.80;93.60
13998;DHT22;7074;51.508;7.018;2024-03-29T14:14:51;17.80;93.80
13998;DHT22;7074;51.508;7.018;2024-03-29T14:17:20;17.90;94.40
13998;DHT22;7074;51.508;7.018;2024-03-29T14:19:47;17.90;94.40
13998;DHT22;7074;51.508;7.018;2024-03-29T14:22:16;17.80;94.10
13998;DHT22;7074;51.508;7.018;2024-03-29T14:24:45;17.90;93.40
13998;DHT22;7074;51.508;7.018;2024-03-29T14:27:12;18.00;93.80
13998;DHT22;7074;51.508;7.018;2024-03-29T14:29:40;18.00;93.50
13998;DHT22;7074;51.508;7.018;2024-03-29T14:32:10;18.00;93.90
13998;DHT22;7074;51.508;7.018;2024-03-29T14:34:39;18.00;93.50
13998;DHT22;7074;51.508;7.018;2024-03-29T14:37:12;18.00;93.70
13998;DHT22;7074;51.508;7.018;2024-03-29T14:39:41;18.00;93.50
13998;DHT22;7074;51.508;7.018;2024-03-29T14:42:10;18.00;93.90
13998;DHT22;7074;51.508;7.018;2024-03-29T14:44:39;17.70;94.20
13998;DHT22;7074;51.508;7.018;2024-03-29T14:47:07;17.80;95.20
13998;DHT22;7074;51.508;7.018;2024-03-29T14:49:34;17.60;96.90
13998;DHT22;7074;51.508;7.018;2024-03-29T14:52:03;17.70;98.10
13998;DHT22;7074;51.508;7.018;2024-03-29T14:54:30;17.70;98.20
13998;DHT22;7074;51.508;7.018;2024-03-29T14:56:58;17.80;99.00
13998;DHT22;7074;51.508;7.018;2024-03-29T14:59:25;17.90;99.30
13998;DHT22;7074;51.508;7.018;2024-03-29T15:01:55;18.00;99.00
13998;DHT22;7074;51.508;7.018;2024-03-29T15:04:23;18.10;98.10
13998;DHT22;7074;51.508;7.018;2024-03-29T15:06:50;18.00;98.20
13998;DHT22;7074;51.508;7.018;2024-03-29T15:09:18;18.10;98.30
13998;DHT22;7074;51.508;7.018;2024-03-29T15:11:45;18.10;98.00
13998;DHT22;7074;51.508;7.018;2024-03-29T15:14:14;18.10;98.50
13998;DHT22;7074;51.508;7.018;2024-03-29T15:16:42;18.10;98.20
13998;DHT22;7074;51.508;7.018;2024-03-29T15:19:09;17.90;94.70
13998;DHT22;7074;51.508;7.018;2024-03-29T15:21:36;17.90;95.30
13998;DHT22;7074;51.508;7.018;2024-03-29T15:24:06;17.90;94.20
13998;DHT22;7074;51.508;7.018;2024-03-29T15:26:34;18.00;92.30
13998;DHT22;7074;51.508;7.018;2024-03-29T15:29:03;17.90;92.40
13998;DHT22;7074;51.508;7.018;2024-03-29T15:31:34;17.90;91.60
13998;DHT22;7074;51.508;7.018;2024-03-29T15:34:04;17.80;91.90
13998;DHT22;7074;51.508;7.018;2024-03-29T15:36:32;17.80;91.80
13998;DHT22;7074;51.508;7.018;2024-03-29T15:39:00;17.80;92.50
13998;DHT22;7074;51.508;7.018;2024-03-29T15:41:31;17.70;92.70
13998;DHT22;7074;51.508;7.018;2024-03-29T15:44:00;17.80;93.30
13998;DHT22;7074;51.508;7.018;2024-03-29T15:46:28;17.80;94.00
13998;DHT22;7074;51.508;7.018;2024-03-29T15:48:55;17.70;94.40
13998;DHT22;7074;51.508;7.018;2024-03-29T15:51:22;17.50;94.10
13998;DHT22;7074;51.508;7.018;2024-03-29T15:53:50;17.50;94.70
13998;DHT22;7074;51.508;7.018;2024-03-29T15:56:18;17.50;95.00
13998;DHT22;7074;51.508;7.018;2024-03-29T15:58:45;17.40;96.40
13998;DHT22;7074;51.508;7.018;2024-03-29T16:01:14;17.50;97.40
13998;DHT22;7074;51.508;7.018;2024-03-29T16:03:41;17.20;98.30
13998;DHT22;7074;51.508;7.018;2024-03-29T16:06:08;17.10;98.90
13998;DHT22;7074;51.508;7.018;2024-03-29T16:08:37;17.10;99.90
13998;DHT22;7074;51.508;7.018;2024-03-29T16:11:06;17.10;99.90
13998;DHT22;7074;51.508;7.018;2024-03-29T16:13:33;17.00;99.90
13998;DHT22;7074;51.508;7.018;2024-03-29T16:16:01;16.80;99.90
13998;DHT22;7074;51.508;7.018;2024-03-29T16:18:30;16.80;99.90
13998;DHT22;7074;51.508;7.018;2024-03-29T16:20:57;16.70;99.90
13998;DHT22;7074;51.508;7.018;2024-03-29T16:23:25;16.70;99.90
13998;DHT22;7074;51.508;7.018;2024-03-29T16:25:52;16.70;99.90
13998;DHT22;7074;51.508;7.018;2024-03-29T16:28:21;16.60;99.90
13998;DHT22;7074;51.508;7.018;2024-03-29T16:30:48;16.60;99.90
13998;DHT22;7074;51.508;7.018;2024-03-29T16:33:16;16.70;99.90
13998;DHT22;7074;51.508;7.018;2024-03-29T16:35:44;16.50;99.90
13998;DHT22;7074;51.508;7.018;2024-03-29T16:38:11;16.50;99.90
13998;DHT22;7074;51.508;7.018;2024-03-29T16:40:38;16.40;99.90
13998;DHT22;7074;51.508;7.018;2024-03-29T16:43:06;16.40;99.90
13998;DHT22;7074;51.508;7.018;2024-03-29T16:45:32;16.20;99.90
13998;DHT22;7074;51.508;7.018;2024-03-29T16:48:00;16.10;99.90
13998;DHT22;7074;51.508;7.018;2024-03-29T16:50:26;16.20;99.90
13998;DHT22;7074;51.508;7.018;2024-03-29T16:52:55;16.20;99.90
13998;DHT22;7074;51.508;7.018;2024-03-29T16:55:21;16.20;99.90
13998;DHT22;7074;51.508;7.018;2024-03-29T16:57:48;16.20;99.90
13998;DHT22;7074;51.508;7.018;2024-03-29T17:00:15;16.20;99.90
13998;DHT22;7074;51.508;7.018;2024-03-29T17:02:43;16.10;99.90
13998;DHT22;7074;51.508;7.018;2024-03-29T17:05:09;16.20;99.90